Saint Marie, Montana
Current Conditions -  °F | °C
As of 10:07 AM on Sunday 23 Nov 2014 (Local Time) from KGGW Reporting Station
Broken Clouds Broken Clouds  
Wind Chill: -12°   Ceiling: 2500
Heat Index: -3°   Visibility: 10mi
Dew Point: -8°   Wind: 25mph
Humidity: 69%   Direction: 320°NW
Pressure: 29.81"   Gusts: 35mph
Location:  48.4°N, 106.55°W
Report Text: KGGW 231707Z AUTO 32022G30KT 10SM BKN025 M03/M08 A2981 RMK AO2 PK WND 32030/1655 T10331083
Loading
Personal Weather Stations






























Interactive Weather Map New forecast layout! Learn more

10-Day Weather Forecast

Advertisements
Track Severe Weather on mobile